sensor_id;sensor_type;location;lat;lon;timestamp;P1;durP1;ratioP1;P2;durP2;ratioP2
66272;SDS011;58450;52.150;4.466;2023-05-10T00:01:54;33.47;;;23.63;;
66272;SDS011;58450;52.150;4.466;2023-05-10T00:04:22;35.13;;;24.88;;
66272;SDS011;58450;52.150;4.466;2023-05-10T00:06:53;34.33;;;23.95;;
66272;SDS011;58450;52.150;4.466;2023-05-10T00:09:20;36.75;;;26.48;;
66272;SDS011;58450;52.150;4.466;2023-05-10T00:11:48;37.10;;;26.20;;
66272;SDS011;58450;52.150;4.466;2023-05-10T00:14:17;38.78;;;27.08;;
66272;SDS011;58450;52.150;4.466;2023-05-10T00:16:44;41.08;;;26.00;;
66272;SDS011;58450;52.150;4.466;2023-05-10T00:19:12;40.15;;;27.23;;
66272;SDS011;58450;52.150;4.466;2023-05-10T00:21:39;37.00;;;26.25;;
66272;SDS011;58450;52.150;4.466;2023-05-10T00:24:07;36.78;;;25.80;;
66272;SDS011;58450;52.150;4.466;2023-05-10T00:26:34;37.70;;;26.65;;
66272;SDS011;58450;52.150;4.466;2023-05-10T00:29:02;36.10;;;24.98;;
66272;SDS011;58450;52.150;4.466;2023-05-10T00:31:31;32.22;;;23.65;;
66272;SDS011;58450;52.150;4.466;2023-05-10T00:33:58;32.58;;;22.45;;
66272;SDS011;58450;52.150;4.466;2023-05-10T00:36:26;31.17;;;21.85;;
66272;SDS011;58450;52.150;4.466;2023-05-10T00:38:53;34.35;;;23.25;;
66272;SDS011;58450;52.150;4.466;2023-05-10T00:41:21;34.35;;;22.70;;
66272;SDS011;58450;52.150;4.466;2023-05-10T00:43:48;33.38;;;22.13;;
66272;SDS011;58450;52.150;4.466;2023-05-10T00:46:16;35.33;;;21.63;;
66272;SDS011;58450;52.150;4.466;2023-05-10T00:48:45;30.63;;;20.02;;
66272;SDS011;58450;52.150;4.466;2023-05-10T00:51:13;30.38;;;21.00;;
66272;SDS011;58450;52.150;4.466;2023-05-10T00:53:41;30.15;;;20.95;;
66272;SDS011;58450;52.150;4.466;2023-05-10T00:56:09;32.75;;;20.67;;
66272;SDS011;58450;52.150;4.466;2023-05-10T00:58:38;28.65;;;20.02;;
66272;SDS011;58450;52.150;4.466;2023-05-10T01:01:06;31.15;;;20.55;;
66272;SDS011;58450;52.150;4.466;2023-05-10T01:03:35;38.53;;;24.33;;
66272;SDS011;58450;52.150;4.466;2023-05-10T01:06:05;40.80;;;26.75;;
66272;SDS011;58450;52.150;4.466;2023-05-10T01:08:33;38.72;;;24.67;;
66272;SDS011;58450;52.150;4.466;2023-05-10T01:11:01;35.17;;;23.02;;
66272;SDS011;58450;52.150;4.466;2023-05-10T01:13:30;40.72;;;25.80;;
66272;SDS011;58450;52.150;4.466;2023-05-10T01:16:01;40.92;;;25.48;;
66272;SDS011;58450;52.150;4.466;2023-05-10T01:18:30;38.67;;;25.40;;
66272;SDS011;58450;52.150;4.466;2023-05-10T01:21:07;35.85;;;23.77;;
66272;SDS011;58450;52.150;4.466;2023-05-10T01:23:56;39.75;;;25.52;;
66272;SDS011;58450;52.150;4.466;2023-05-10T01:33:37;37.88;;;23.52;;
66272;SDS011;58450;52.150;4.466;2023-05-10T01:36:13;39.33;;;24.30;;
66272;SDS011;58450;52.150;4.466;2023-05-10T01:38:55;35.88;;;23.58;;
66272;SDS011;58450;52.150;4.466;2023-05-10T01:41:32;39.45;;;25.23;;
66272;SDS011;58450;52.150;4.466;2023-05-10T01:44:14;41.38;;;26.15;;
66272;SDS011;58450;52.150;4.466;2023-05-10T01:46:52;44.15;;;27.95;;
66272;SDS011;58450;52.150;4.466;2023-05-10T01:49:31;49.85;;;29.42;;
66272;SDS011;58450;52.150;4.466;2023-05-10T01:52:06;48.78;;;29.90;;
66272;SDS011;58450;52.150;4.466;2023-05-10T01:54:41;51.35;;;30.58;;
66272;SDS011;58450;52.150;4.466;2023-05-10T01:57:16;52.58;;;30.23;;
66272;SDS011;58450;52.150;4.466;2023-05-10T01:59:47;45.47;;;28.17;;
66272;SDS011;58450;52.150;4.466;2023-05-10T02:02:18;51.25;;;29.67;;
66272;SDS011;58450;52.150;4.466;2023-05-10T02:04:49;48.03;;;28.35;;
66272;SDS011;58450;52.150;4.466;2023-05-10T02:07:20;50.60;;;28.92;;
66272;SDS011;58450;52.150;4.466;2023-05-10T02:09:50;50.47;;;30.20;;
66272;SDS011;58450;52.150;4.466;2023-05-10T02:12:19;47.08;;;28.88;;
66272;SDS011;58450;52.150;4.466;2023-05-10T02:14:49;47.13;;;27.88;;
66272;SDS011;58450;52.150;4.466;2023-05-10T02:17:20;48.85;;;30.13;;
66272;SDS011;58450;52.150;4.466;2023-05-10T02:19:51;50.13;;;30.27;;
66272;SDS011;58450;52.150;4.466;2023-05-10T02:22:22;49.92;;;30.52;;
66272;SDS011;58450;52.150;4.466;2023-05-10T02:24:52;53.53;;;31.38;;
66272;SDS011;58450;52.150;4.466;2023-05-10T02:27:24;52.28;;;31.73;;
66272;SDS011;58450;52.150;4.466;2023-05-10T02:29:54;53.22;;;31.92;;
66272;SDS011;58450;52.150;4.466;2023-05-10T02:32:24;54.78;;;32.45;;
66272;SDS011;58450;52.150;4.466;2023-05-10T02:34:57;55.03;;;32.20;;
66272;SDS011;58450;52.150;4.466;2023-05-10T02:37:28;59.33;;;32.03;;
66272;SDS011;58450;52.150;4.466;2023-05-10T02:39:58;54.05;;;32.40;;
66272;SDS011;58450;52.150;4.466;2023-05-10T02:42:26;55.33;;;33.65;;
66272;SDS011;58450;52.150;4.466;2023-05-10T02:44:59;55.67;;;32.90;;
66272;SDS011;58450;52.150;4.466;2023-05-10T02:47:32;50.45;;;31.00;;
66272;SDS011;58450;52.150;4.466;2023-05-10T02:50:01;53.70;;;33.33;;
66272;SDS011;58450;52.150;4.466;2023-05-10T02:52:30;56.58;;;33.35;;
66272;SDS011;58450;52.150;4.466;2023-05-10T02:55:07;50.88;;;31.85;;
66272;SDS011;58450;52.150;4.466;2023-05-10T02:57:40;55.42;;;32.92;;
66272;SDS011;58450;52.150;4.466;2023-05-10T03:00:13;54.13;;;32.25;;
66272;SDS011;58450;52.150;4.466;2023-05-10T03:02:41;55.80;;;33.88;;
66272;SDS011;58450;52.150;4.466;2023-05-10T03:05:10;53.42;;;33.25;;
66272;SDS011;58450;52.150;4.466;2023-05-10T03:07:37;57.60;;;33.38;;
66272;SDS011;58450;52.150;4.466;2023-05-10T03:10:05;57.83;;;34.60;;
66272;SDS011;58450;52.150;4.466;2023-05-10T03:12:39;55.95;;;32.95;;
66272;SDS011;58450;52.150;4.466;2023-05-10T03:15:25;48.80;;;29.60;;
66272;SDS011;58450;52.150;4.466;2023-05-10T03:18:04;52.65;;;31.33;;
66272;SDS011;58450;52.150;4.466;2023-05-10T03:20:41;45.83;;;28.55;;
66272;SDS011;58450;52.150;4.466;2023-05-10T03:23:13;36.75;;;24.05;;
66272;SDS011;58450;52.150;4.466;2023-05-10T03:25:53;38.30;;;24.50;;
66272;SDS011;58450;52.150;4.466;2023-05-10T03:28:22;37.72;;;24.58;;
66272;SDS011;58450;52.150;4.466;2023-05-10T03:30:53;36.63;;;24.08;;
66272;SDS011;58450;52.150;4.466;2023-05-10T03:33:22;33.38;;;21.80;;
66272;SDS011;58450;52.150;4.466;2023-05-10T03:35:51;37.30;;;21.10;;
66272;SDS011;58450;52.150;4.466;2023-05-10T03:38:19;41.72;;;24.02;;
66272;SDS011;58450;52.150;4.466;2023-05-10T03:40:46;39.03;;;21.75;;
66272;SDS011;58450;52.150;4.466;2023-05-10T03:43:14;40.45;;;22.50;;
66272;SDS011;58450;52.150;4.466;2023-05-10T03:45:41;44.83;;;23.85;;
66272;SDS011;58450;52.150;4.466;2023-05-10T03:48:09;41.22;;;22.13;;
66272;SDS011;58450;52.150;4.466;2023-05-10T03:50:36;43.95;;;21.40;;
66272;SDS011;58450;52.150;4.466;2023-05-10T03:53:05;42.33;;;21.42;;
66272;SDS011;58450;52.150;4.466;2023-05-10T03:55:33;42.65;;;20.75;;
66272;SDS011;58450;52.150;4.466;2023-05-10T03:58:02;40.08;;;18.98;;
66272;SDS011;58450;52.150;4.466;2023-05-10T04:00:29;44.65;;;20.15;;
66272;SDS011;58450;52.150;4.466;2023-05-10T04:02:57;42.22;;;18.60;;
66272;SDS011;58450;52.150;4.466;2023-05-10T04:05:24;39.33;;;18.23;;
66272;SDS011;58450;52.150;4.466;2023-05-10T04:07:52;46.70;;;22.50;;
66272;SDS011;58450;52.150;4.466;2023-05-10T04:10:21;42.47;;;20.08;;
66272;SDS011;58450;52.150;4.466;2023-05-10T04:12:49;49.38;;;23.00;;
66272;SDS011;58450;52.150;4.466;2023-05-10T04:15:16;46.45;;;21.67;;
66272;SDS011;58450;52.150;4.466;2023-05-10T04:17:44;47.78;;;21.45;;
66272;SDS011;58450;52.150;4.466;2023-05-10T04:20:12;40.42;;;21.10;;
66272;SDS011;58450;52.150;4.466;2023-05-10T04:22:40;40.15;;;21.33;;
66272;SDS011;58450;52.150;4.466;2023-05-10T04:25:08;42.95;;;22.13;;
66272;SDS011;58450;52.150;4.466;2023-05-10T04:27:37;46.40;;;22.90;;
66272;SDS011;58450;52.150;4.466;2023-05-10T04:30:05;42.28;;;22.67;;
66272;SDS011;58450;52.150;4.466;2023-05-10T04:32:34;43.67;;;21.77;;
66272;SDS011;58450;52.150;4.466;2023-05-10T04:35:02;40.13;;;21.13;;
66272;SDS011;58450;52.150;4.466;2023-05-10T04:37:30;41.53;;;20.30;;
66272;SDS011;58450;52.150;4.466;2023-05-10T04:39:57;41.70;;;20.77;;
66272;SDS011;58450;52.150;4.466;2023-05-10T04:42:26;39.05;;;19.27;;
66272;SDS011;58450;52.150;4.466;2023-05-10T04:44:55;31.88;;;16.33;;
66272;SDS011;58450;52.150;4.466;2023-05-10T04:47:22;33.58;;;16.90;;
66272;SDS011;58450;52.150;4.466;2023-05-10T04:49:50;32.97;;;17.48;;
66272;SDS011;58450;52.150;4.466;2023-05-10T04:52:17;36.08;;;18.83;;
66272;SDS011;58450;52.150;4.466;2023-05-10T04:54:45;30.92;;;17.77;;
66272;SDS011;58450;52.150;4.466;2023-05-10T04:57:12;28.35;;;15.95;;
66272;SDS011;58450;52.150;4.466;2023-05-10T04:59:40;30.90;;;17.27;;
66272;SDS011;58450;52.150;4.466;2023-05-10T05:02:09;29.67;;;17.02;;
66272;SDS011;58450;52.150;4.466;2023-05-10T05:04:37;27.00;;;15.38;;
66272;SDS011;58450;52.150;4.466;2023-05-10T05:07:04;26.58;;;15.00;;
66272;SDS011;58450;52.150;4.466;2023-05-10T05:09:32;27.50;;;16.20;;
66272;SDS011;58450;52.150;4.466;2023-05-10T05:11:59;27.05;;;15.73;;
66272;SDS011;58450;52.150;4.466;2023-05-10T05:14:27;31.33;;;16.88;;
66272;SDS011;58450;52.150;4.466;2023-05-10T05:16:54;27.17;;;16.38;;
66272;SDS011;58450;52.150;4.466;2023-05-10T05:19:24;31.38;;;17.52;;
66272;SDS011;58450;52.150;4.466;2023-05-10T05:21:51;31.70;;;17.48;;
66272;SDS011;58450;52.150;4.466;2023-05-10T05:24:19;31.75;;;16.90;;
66272;SDS011;58450;52.150;4.466;2023-05-10T05:26:46;33.40;;;18.33;;
66272;SDS011;58450;52.150;4.466;2023-05-10T05:29:14;32.92;;;16.67;;
66272;SDS011;58450;52.150;4.466;2023-05-10T05:31:41;27.55;;;13.40;;
66272;SDS011;58450;52.150;4.466;2023-05-10T05:34:09;24.23;;;12.55;;
66272;SDS011;58450;52.150;4.466;2023-05-10T05:36:38;21.45;;;10.80;;
66272;SDS011;58450;52.150;4.466;2023-05-10T05:39:05;21.63;;;11.52;;
66272;SDS011;58450;52.150;4.466;2023-05-10T05:41:33;16.77;;;9.65;;
66272;SDS011;58450;52.150;4.466;2023-05-10T05:44:00;16.88;;;10.02;;
66272;SDS011;58450;52.150;4.466;2023-05-10T05:46:28;13.63;;;8.23;;
66272;SDS011;58450;52.150;4.466;2023-05-10T05:48:55;11.23;;;6.95;;
66272;SDS011;58450;52.150;4.466;2023-05-10T05:51:23;9.93;;;6.78;;
66272;SDS011;58450;52.150;4.466;2023-05-10T05:53:52;10.27;;;6.68;;
66272;SDS011;58450;52.150;4.466;2023-05-10T05:56:19;11.38;;;6.57;;
66272;SDS011;58450;52.150;4.466;2023-05-10T05:58:50;8.48;;;5.72;;
66272;SDS011;58450;52.150;4.466;2023-05-10T06:01:17;10.32;;;5.93;;
66272;SDS011;58450;52.150;4.466;2023-05-10T06:03:45;8.40;;;6.00;;
66272;SDS011;58450;52.150;4.466;2023-05-10T06:06:12;8.95;;;6.28;;
66272;SDS011;58450;52.150;4.466;2023-05-10T06:08:40;9.38;;;5.57;;
66272;SDS011;58450;52.150;4.466;2023-05-10T06:11:09;9.80;;;5.80;;
66272;SDS011;58450;52.150;4.466;2023-05-10T06:13:36;8.95;;;5.40;;
66272;SDS011;58450;52.150;4.466;2023-05-10T06:16:04;7.00;;;4.70;;
66272;SDS011;58450;52.150;4.466;2023-05-10T06:18:32;6.82;;;4.90;;
66272;SDS011;58450;52.150;4.466;2023-05-10T06:21:00;6.07;;;4.30;;
66272;SDS011;58450;52.150;4.466;2023-05-10T06:23:27;7.00;;;4.35;;
66272;SDS011;58450;52.150;4.466;2023-05-10T06:25:55;5.90;;;4.03;;
66272;SDS011;58450;52.150;4.466;2023-05-10T06:28:24;5.43;;;3.50;;
66272;SDS011;58450;52.150;4.466;2023-05-10T06:30:52;5.78;;;3.63;;
66272;SDS011;58450;52.150;4.466;2023-05-10T06:33:19;5.88;;;4.22;;
66272;SDS011;58450;52.150;4.466;2023-05-10T06:35:46;6.15;;;4.30;;
66272;SDS011;58450;52.150;4.466;2023-05-10T06:38:14;8.20;;;5.50;;
66272;SDS011;58450;52.150;4.466;2023-05-10T06:40:41;8.32;;;5.00;;
66272;SDS011;58450;52.150;4.466;2023-05-10T06:43:09;8.05;;;5.70;;
66272;SDS011;58450;52.150;4.466;2023-05-10T06:45:39;8.32;;;5.50;;
66272;SDS011;58450;52.150;4.466;2023-05-10T06:48:06;7.60;;;5.40;;
66272;SDS011;58450;52.150;4.466;2023-05-10T06:50:34;8.48;;;5.68;;
66272;SDS011;58450;52.150;4.466;2023-05-10T06:53:02;7.65;;;5.22;;
66272;SDS011;58450;52.150;4.466;2023-05-10T06:55:29;7.55;;;5.28;;
66272;SDS011;58450;52.150;4.466;2023-05-10T06:57:57;8.02;;;5.35;;
66272;SDS011;58450;52.150;4.466;2023-05-10T07:00:24;7.43;;;5.22;;
66272;SDS011;58450;52.150;4.466;2023-05-10T07:02:54;8.90;;;4.80;;
66272;SDS011;58450;52.150;4.466;2023-05-10T07:05:21;7.90;;;4.55;;
66272;SDS011;58450;52.150;4.466;2023-05-10T07:07:49;8.98;;;5.20;;
66272;SDS011;58450;52.150;4.466;2023-05-10T07:10:17;8.32;;;4.90;;
66272;SDS011;58450;52.150;4.466;2023-05-10T07:12:45;10.30;;;5.47;;
66272;SDS011;58450;52.150;4.466;2023-05-10T07:15:12;8.80;;;5.13;;
66272;SDS011;58450;52.150;4.466;2023-05-10T07:17:41;9.75;;;5.40;;
66272;SDS011;58450;52.150;4.466;2023-05-10T07:20:10;8.93;;;5.03;;
66272;SDS011;58450;52.150;4.466;2023-05-10T07:22:39;8.63;;;5.65;;
66272;SDS011;58450;52.150;4.466;2023-05-10T07:25:06;8.32;;;5.15;;
66272;SDS011;58450;52.150;4.466;2023-05-10T07:27:34;10.45;;;5.30;;
66272;SDS011;58450;52.150;4.466;2023-05-10T07:30:02;8.95;;;4.88;;
66272;SDS011;58450;52.150;4.466;2023-05-10T07:32:30;8.52;;;4.90;;
66272;SDS011;58450;52.150;4.466;2023-05-10T07:34:58;8.32;;;4.90;;
66272;SDS011;58450;52.150;4.466;2023-05-10T07:37:27;8.43;;;4.35;;
66272;SDS011;58450;52.150;4.466;2023-05-10T07:39:54;6.78;;;3.97;;
66272;SDS011;58450;52.150;4.466;2023-05-10T07:42:22;6.90;;;3.95;;
66272;SDS011;58450;52.150;4.466;2023-05-10T07:44:49;5.13;;;3.45;;
66272;SDS011;58450;52.150;4.466;2023-05-10T07:47:17;5.70;;;3.40;;
66272;SDS011;58450;52.150;4.466;2023-05-10T07:49:45;5.60;;;3.50;;
66272;SDS011;58450;52.150;4.466;2023-05-10T07:52:12;5.80;;;3.22;;
66272;SDS011;58450;52.150;4.466;2023-05-10T07:54:42;4.85;;;3.33;;
66272;SDS011;58450;52.150;4.466;2023-05-10T07:57:10;5.30;;;3.00;;
66272;SDS011;58450;52.150;4.466;2023-05-10T07:59:40;5.50;;;2.90;;
66272;SDS011;58450;52.150;4.466;2023-05-10T08:02:07;4.35;;;2.72;;
66272;SDS011;58450;52.150;4.466;2023-05-10T08:04:35;4.13;;;2.47;;
66272;SDS011;58450;52.150;4.466;2023-05-10T08:07:02;3.17;;;2.28;;
66272;SDS011;58450;52.150;4.466;2023-05-10T08:09:30;5.47;;;2.72;;
66272;SDS011;58450;52.150;4.466;2023-05-10T08:11:59;3.47;;;2.45;;
66272;SDS011;58450;52.150;4.466;2023-05-10T08:14:27;4.00;;;2.60;;
66272;SDS011;58450;52.150;4.466;2023-05-10T08:16:56;2.90;;;2.25;;
66272;SDS011;58450;52.150;4.466;2023-05-10T08:19:23;3.92;;;2.78;;
66272;SDS011;58450;52.150;4.466;2023-05-10T08:21:51;4.50;;;2.40;;
66272;SDS011;58450;52.150;4.466;2023-05-10T08:24:21;4.32;;;2.40;;
66272;SDS011;58450;52.150;4.466;2023-05-10T08:26:49;3.50;;;2.28;;
66272;SDS011;58450;52.150;4.466;2023-05-10T08:29:18;4.05;;;2.30;;
66272;SDS011;58450;52.150;4.466;2023-05-10T08:31:45;4.28;;;2.10;;
66272;SDS011;58450;52.150;4.466;2023-05-10T08:34:13;3.25;;;2.20;;
66272;SDS011;58450;52.150;4.466;2023-05-10T08:36:40;3.40;;;2.08;;
66272;SDS011;58450;52.150;4.466;2023-05-10T08:39:08;3.78;;;2.20;;
66272;SDS011;58450;52.150;4.466;2023-05-10T08:41:35;4.07;;;2.70;;
66272;SDS011;58450;52.150;4.466;2023-05-10T08:44:09;4.10;;;2.22;;
66272;SDS011;58450;52.150;4.466;2023-05-10T08:46:38;6.50;;;2.80;;
66272;SDS011;58450;52.150;4.466;2023-05-10T08:49:10;4.30;;;2.92;;
66272;SDS011;58450;52.150;4.466;2023-05-10T08:51:44;4.45;;;2.83;;
66272;SDS011;58450;52.150;4.466;2023-05-10T08:54:18;5.90;;;2.85;;
66272;SDS011;58450;52.150;4.466;2023-05-10T08:56:47;4.03;;;2.80;;
66272;SDS011;58450;52.150;4.466;2023-05-10T08:59:15;4.20;;;2.83;;
66272;SDS011;58450;52.150;4.466;2023-05-10T09:01:44;4.20;;;2.50;;
66272;SDS011;58450;52.150;4.466;2023-05-10T09:04:15;4.70;;;2.55;;
66272;SDS011;58450;52.150;4.466;2023-05-10T09:06:42;4.53;;;3.08;;
66272;SDS011;58450;52.150;4.466;2023-05-10T09:09:10;4.65;;;2.80;;
66272;SDS011;58450;52.150;4.466;2023-05-10T09:11:38;4.25;;;2.78;;
66272;SDS011;58450;52.150;4.466;2023-05-10T09:14:06;3.85;;;2.60;;
66272;SDS011;58450;52.150;4.466;2023-05-10T09:16:35;4.95;;;3.33;;
66272;SDS011;58450;52.150;4.466;2023-05-10T09:19:04;5.32;;;3.80;;
66272;SDS011;58450;52.150;4.466;2023-05-10T09:21:33;6.47;;;3.40;;
66272;SDS011;58450;52.150;4.466;2023-05-10T09:24:04;7.35;;;3.95;;
66272;SDS011;58450;52.150;4.466;2023-05-10T09:26:32;6.75;;;4.45;;
66272;SDS011;58450;52.150;4.466;2023-05-10T09:29:01;7.38;;;4.65;;
66272;SDS011;58450;52.150;4.466;2023-05-10T09:31:43;9.23;;;5.38;;
66272;SDS011;58450;52.150;4.466;2023-05-10T09:34:16;8.73;;;5.55;;
66272;SDS011;58450;52.150;4.466;2023-05-10T09:36:52;8.55;;;4.95;;
66272;SDS011;58450;52.150;4.466;2023-05-10T09:39:29;9.35;;;5.82;;
66272;SDS011;58450;52.150;4.466;2023-05-10T09:41:58;10.63;;;5.90;;
66272;SDS011;58450;52.150;4.466;2023-05-10T09:44:29;9.98;;;5.88;;
66272;SDS011;58450;52.150;4.466;2023-05-10T09:46:57;10.38;;;5.80;;
66272;SDS011;58450;52.150;4.466;2023-05-10T09:49:26;12.43;;;5.85;;
66272;SDS011;58450;52.150;4.466;2023-05-10T09:52:01;9.05;;;5.85;;
66272;SDS011;58450;52.150;4.466;2023-05-10T09:54:30;11.18;;;5.80;;
66272;SDS011;58450;52.150;4.466;2023-05-10T09:56:58;10.35;;;5.75;;
66272;SDS011;58450;52.150;4.466;2023-05-10T09:59:26;11.45;;;6.65;;
66272;SDS011;58450;52.150;4.466;2023-05-10T10:01:55;13.05;;;6.75;;
66272;SDS011;58450;52.150;4.466;2023-05-10T10:04:24;12.50;;;7.53;;
66272;SDS011;58450;52.150;4.466;2023-05-10T10:07:02;15.93;;;7.68;;
66272;SDS011;58450;52.150;4.466;2023-05-10T10:09:31;14.27;;;7.57;;
66272;SDS011;58450;52.150;4.466;2023-05-10T10:12:00;15.13;;;7.72;;
66272;SDS011;58450;52.150;4.466;2023-05-10T10:14:29;17.55;;;8.95;;
66272;SDS011;58450;52.150;4.466;2023-05-10T10:16:57;18.98;;;9.55;;
66272;SDS011;58450;52.150;4.466;2023-05-10T10:19:27;15.90;;;8.13;;
66272;SDS011;58450;52.150;4.466;2023-05-10T10:21:55;14.75;;;8.40;;
66272;SDS011;58450;52.150;4.466;2023-05-10T10:24:24;17.58;;;8.85;;
66272;SDS011;58450;52.150;4.466;2023-05-10T10:26:52;17.40;;;9.02;;
66272;SDS011;58450;52.150;4.466;2023-05-10T10:29:31;20.98;;;9.40;;
66272;SDS011;58450;52.150;4.466;2023-05-10T10:32:09;20.25;;;9.60;;
66272;SDS011;58450;52.150;4.466;2023-05-10T10:34:51;18.43;;;9.23;;
66272;SDS011;58450;52.150;4.466;2023-05-10T10:37:20;17.80;;;8.50;;
66272;SDS011;58450;52.150;4.466;2023-05-10T10:39:50;19.50;;;10.45;;
66272;SDS011;58450;52.150;4.466;2023-05-10T10:45:12;21.65;;;9.90;;
66272;SDS011;58450;52.150;4.466;2023-05-10T10:47:40;21.83;;;10.38;;
66272;SDS011;58450;52.150;4.466;2023-05-10T10:50:09;20.95;;;9.75;;
66272;SDS011;58450;52.150;4.466;2023-05-10T10:52:39;19.25;;;9.60;;
66272;SDS011;58450;52.150;4.466;2023-05-10T10:55:09;18.05;;;8.82;;
66272;SDS011;58450;52.150;4.466;2023-05-10T10:57:48;18.75;;;9.32;;
66272;SDS011;58450;52.150;4.466;2023-05-10T11:00:25;18.60;;;8.95;;
66272;SDS011;58450;52.150;4.466;2023-05-10T11:02:56;19.10;;;9.07;;
66272;SDS011;58450;52.150;4.466;2023-05-10T11:08:11;18.27;;;8.98;;
66272;SDS011;58450;52.150;4.466;2023-05-10T11:10:52;17.42;;;8.95;;
66272;SDS011;58450;52.150;4.466;2023-05-10T11:13:33;13.75;;;7.97;;
66272;SDS011;58450;52.150;4.466;2023-05-10T11:16:13;13.80;;;7.40;;
66272;SDS011;58450;52.150;4.466;2023-05-10T11:18:56;14.18;;;7.38;;
66272;SDS011;58450;52.150;4.466;2023-05-10T11:21:28;16.67;;;8.00;;
66272;SDS011;58450;52.150;4.466;2023-05-10T11:23:57;16.05;;;8.02;;
66272;SDS011;58450;52.150;4.466;2023-05-10T11:26:30;17.63;;;8.35;;
66272;SDS011;58450;52.150;4.466;2023-05-10T11:28:59;15.40;;;8.70;;
66272;SDS011;58450;52.150;4.466;2023-05-10T11:31:28;13.63;;;8.18;;
66272;SDS011;58450;52.150;4.466;2023-05-10T11:33:56;13.05;;;7.30;;
66272;SDS011;58450;52.150;4.466;2023-05-10T11:36:27;11.75;;;7.30;;
66272;SDS011;58450;52.150;4.466;2023-05-10T11:38:59;12.45;;;7.00;;
66272;SDS011;58450;52.150;4.466;2023-05-10T11:41:29;13.68;;;6.95;;
66272;SDS011;58450;52.150;4.466;2023-05-10T11:43:58;11.65;;;5.97;;
66272;SDS011;58450;52.150;4.466;2023-05-10T11:46:27;10.32;;;5.97;;
66272;SDS011;58450;52.150;4.466;2023-05-10T11:48:57;10.80;;;4.40;;
66272;SDS011;58450;52.150;4.466;2023-05-10T11:51:29;10.20;;;5.05;;
66272;SDS011;58450;52.150;4.466;2023-05-10T11:54:05;7.82;;;4.70;;
66272;SDS011;58450;52.150;4.466;2023-05-10T11:56:36;7.70;;;3.72;;
66272;SDS011;58450;52.150;4.466;2023-05-10T11:59:04;6.07;;;3.40;;
66272;SDS011;58450;52.150;4.466;2023-05-10T12:01:32;4.63;;;3.08;;
66272;SDS011;58450;52.150;4.466;2023-05-10T12:04:00;4.70;;;3.03;;
66272;SDS011;58450;52.150;4.466;2023-05-10T12:06:29;6.00;;;3.10;;
66272;SDS011;58450;52.150;4.466;2023-05-10T12:08:58;6.88;;;4.00;;
66272;SDS011;58450;52.150;4.466;2023-05-10T12:11:32;8.82;;;5.20;;
66272;SDS011;58450;52.150;4.466;2023-05-10T12:14:06;12.05;;;6.00;;
66272;SDS011;58450;52.150;4.466;2023-05-10T12:16:35;14.43;;;7.18;;
66272;SDS011;58450;52.150;4.466;2023-05-10T12:19:03;15.18;;;8.20;;
66272;SDS011;58450;52.150;4.466;2023-05-10T12:21:31;14.75;;;7.95;;
66272;SDS011;58450;52.150;4.466;2023-05-10T12:24:01;15.45;;;8.38;;
66272;SDS011;58450;52.150;4.466;2023-05-10T12:26:30;17.48;;;9.30;;
66272;SDS011;58450;52.150;4.466;2023-05-10T12:29:14;18.90;;;8.45;;
66272;SDS011;58450;52.150;4.466;2023-05-10T12:31:53;17.52;;;9.93;;
66272;SDS011;58450;52.150;4.466;2023-05-10T12:34:23;17.40;;;8.43;;
66272;SDS011;58450;52.150;4.466;2023-05-10T12:36:53;21.30;;;8.45;;
66272;SDS011;58450;52.150;4.466;2023-05-10T12:39:21;21.50;;;9.35;;
66272;SDS011;58450;52.150;4.466;2023-05-10T12:41:49;20.00;;;8.93;;
66272;SDS011;58450;52.150;4.466;2023-05-10T12:44:18;17.42;;;8.10;;
66272;SDS011;58450;52.150;4.466;2023-05-10T12:46:47;15.68;;;7.55;;
66272;SDS011;58450;52.150;4.466;2023-05-10T12:49:14;17.05;;;7.68;;
66272;SDS011;58450;52.150;4.466;2023-05-10T12:51:42;15.40;;;8.10;;
66272;SDS011;58450;52.150;4.466;2023-05-10T12:54:10;16.83;;;8.85;;
66272;SDS011;58450;52.150;4.466;2023-05-10T12:56:37;17.98;;;8.90;;
66272;SDS011;58450;52.150;4.466;2023-05-10T12:59:06;16.33;;;9.35;;
66272;SDS011;58450;52.150;4.466;2023-05-10T13:01:35;14.35;;;8.05;;
66272;SDS011;58450;52.150;4.466;2023-05-10T13:04:02;17.73;;;9.77;;
66272;SDS011;58450;52.150;4.466;2023-05-10T13:06:30;17.33;;;9.32;;
66272;SDS011;58450;52.150;4.466;2023-05-10T13:08:58;14.68;;;8.93;;
66272;SDS011;58450;52.150;4.466;2023-05-10T13:11:25;17.48;;;8.63;;
66272;SDS011;58450;52.150;4.466;2023-05-10T13:13:53;18.23;;;9.98;;
66272;SDS011;58450;52.150;4.466;2023-05-10T13:16:21;17.10;;;9.27;;
66272;SDS011;58450;52.150;4.466;2023-05-10T13:18:50;15.68;;;8.50;;
66272;SDS011;58450;52.150;4.466;2023-05-10T13:21:17;17.20;;;9.02;;
66272;SDS011;58450;52.150;4.466;2023-05-10T13:23:45;18.20;;;9.55;;
66272;SDS011;58450;52.150;4.466;2023-05-10T13:26:12;17.15;;;9.43;;
66272;SDS011;58450;52.150;4.466;2023-05-10T13:28:40;15.90;;;8.60;;
66272;SDS011;58450;52.150;4.466;2023-05-10T13:31:08;15.30;;;9.00;;
66272;SDS011;58450;52.150;4.466;2023-05-10T13:33:36;14.98;;;7.97;;
66272;SDS011;58450;52.150;4.466;2023-05-10T13:36:05;13.57;;;7.82;;
66272;SDS011;58450;52.150;4.466;2023-05-10T13:38:33;12.93;;;6.65;;
66272;SDS011;58450;52.150;4.466;2023-05-10T13:41:01;14.32;;;7.50;;
66272;SDS011;58450;52.150;4.466;2023-05-10T13:43:28;11.38;;;6.97;;
66272;SDS011;58450;52.150;4.466;2023-05-10T13:45:56;12.57;;;6.60;;
66272;SDS011;58450;52.150;4.466;2023-05-10T13:48:24;10.93;;;6.00;;
66272;SDS011;58450;52.150;4.466;2023-05-10T13:50:51;10.60;;;5.90;;
66272;SDS011;58450;52.150;4.466;2023-05-10T13:53:20;10.57;;;5.90;;
66272;SDS011;58450;52.150;4.466;2023-05-10T13:55:48;10.35;;;5.63;;
66272;SDS011;58450;52.150;4.466;2023-05-10T13:58:16;10.10;;;5.38;;
66272;SDS011;58450;52.150;4.466;2023-05-10T14:00:43;8.60;;;5.50;;
66272;SDS011;58450;52.150;4.466;2023-05-10T14:03:11;13.13;;;6.28;;
66272;SDS011;58450;52.150;4.466;2023-05-10T14:05:38;11.30;;;5.72;;
66272;SDS011;58450;52.150;4.466;2023-05-10T14:08:06;9.43;;;5.38;;
66272;SDS011;58450;52.150;4.466;2023-05-10T14:10:36;6.63;;;3.80;;
66272;SDS011;58450;52.150;4.466;2023-05-10T14:13:03;7.55;;;3.60;;
66272;SDS011;58450;52.150;4.466;2023-05-10T14:15:31;8.00;;;4.30;;
66272;SDS011;58450;52.150;4.466;2023-05-10T14:17:59;7.03;;;4.30;;
66272;SDS011;58450;52.150;4.466;2023-05-10T14:20:27;8.00;;;4.30;;
66272;SDS011;58450;52.150;4.466;2023-05-10T14:22:54;8.65;;;4.35;;
66272;SDS011;58450;52.150;4.466;2023-05-10T14:25:22;9.52;;;4.78;;
66272;SDS011;58450;52.150;4.466;2023-05-10T14:27:52;8.05;;;4.85;;
66272;SDS011;58450;52.150;4.466;2023-05-10T14:30:20;10.38;;;5.68;;
66272;SDS011;58450;52.150;4.466;2023-05-10T14:32:47;10.65;;;5.63;;
66272;SDS011;58450;52.150;4.466;2023-05-10T14:35:15;11.15;;;5.90;;
66272;SDS011;58450;52.150;4.466;2023-05-10T14:37:43;10.25;;;5.90;;
66272;SDS011;58450;52.150;4.466;2023-05-10T14:40:10;10.10;;;6.32;;
66272;SDS011;58450;52.150;4.466;2023-05-10T14:42:41;12.00;;;7.40;;
66272;SDS011;58450;52.150;4.466;2023-05-10T14:45:11;12.15;;;7.45;;
66272;SDS011;58450;52.150;4.466;2023-05-10T14:47:39;11.05;;;7.00;;
66272;SDS011;58450;52.150;4.466;2023-05-10T14:50:07;11.55;;;6.45;;
66272;SDS011;58450;52.150;4.466;2023-05-10T14:52:35;10.27;;;6.13;;
66272;SDS011;58450;52.150;4.466;2023-05-10T14:55:02;9.93;;;6.20;;
66272;SDS011;58450;52.150;4.466;2023-05-10T14:57:30;11.20;;;6.53;;
66272;SDS011;58450;52.150;4.466;2023-05-10T14:59:59;11.27;;;6.25;;